sensor_id;sensor_type;location;lat;lon;timestamp;P1;durP1;ratioP1;P2;durP2;ratioP2
10677;SDS011;5387;48.722;9.110;2024-03-08T00:01:35;28.17;;;13.80;;
10677;SDS011;5387;48.722;9.110;2024-03-08T00:04:02;25.00;;;14.33;;
10677;SDS011;5387;48.722;9.110;2024-03-08T00:06:28;27.17;;;13.90;;
10677;SDS011;5387;48.722;9.110;2024-03-08T00:08:55;25.17;;;13.60;;
10677;SDS011;5387;48.722;9.110;2024-03-08T00:11:22;28.97;;;14.83;;
10677;SDS011;5387;48.722;9.110;2024-03-08T00:13:51;26.47;;;13.67;;
10677;SDS011;5387;48.722;9.110;2024-03-08T00:16:19;23.10;;;13.53;;
10677;SDS011;5387;48.722;9.110;2024-03-08T00:18:48;27.70;;;14.53;;
10677;SDS011;5387;48.722;9.110;2024-03-08T00:21:15;25.27;;;13.57;;
10677;SDS011;5387;48.722;9.110;2024-03-08T00:23:42;25.93;;;14.97;;
10677;SDS011;5387;48.722;9.110;2024-03-08T00:26:08;26.40;;;14.20;;
10677;SDS011;5387;48.722;9.110;2024-03-08T00:28:35;27.70;;;13.93;;
10677;SDS011;5387;48.722;9.110;2024-03-08T00:31:02;26.90;;;13.97;;
10677;SDS011;5387;48.722;9.110;2024-03-08T00:33:30;27.17;;;14.67;;
10677;SDS011;5387;48.722;9.110;2024-03-08T00:35:57;27.67;;;14.87;;
10677;SDS011;5387;48.722;9.110;2024-03-08T00:38:24;22.13;;;13.13;;
10677;SDS011;5387;48.722;9.110;2024-03-08T00:40:51;25.20;;;13.57;;
10677;SDS011;5387;48.722;9.110;2024-03-08T00:43:18;30.50;;;14.17;;
10677;SDS011;5387;48.722;9.110;2024-03-08T00:45:44;25.10;;;13.33;;
10677;SDS011;5387;48.722;9.110;2024-03-08T00:48:11;27.77;;;14.00;;
10677;SDS011;5387;48.722;9.110;2024-03-08T00:50:39;22.43;;;12.17;;
10677;SDS011;5387;48.722;9.110;2024-03-08T00:53:06;20.67;;;12.80;;
10677;SDS011;5387;48.722;9.110;2024-03-08T00:55:33;25.13;;;13.07;;
10677;SDS011;5387;48.722;9.110;2024-03-08T00:58:00;24.43;;;14.53;;
10677;SDS011;5387;48.722;9.110;2024-03-08T01:00:27;24.70;;;13.70;;
10677;SDS011;5387;48.722;9.110;2024-03-08T01:02:53;24.37;;;13.60;;
10677;SDS011;5387;48.722;9.110;2024-03-08T01:05:20;23.60;;;13.50;;
10677;SDS011;5387;48.722;9.110;2024-03-08T01:07:50;27.60;;;14.97;;
10677;SDS011;5387;48.722;9.110;2024-03-08T01:10:16;22.60;;;12.80;;
10677;SDS011;5387;48.722;9.110;2024-03-08T01:12:43;26.13;;;13.60;;
10677;SDS011;5387;48.722;9.110;2024-03-08T01:15:10;24.30;;;13.23;;
10677;SDS011;5387;48.722;9.110;2024-03-08T01:17:37;23.80;;;13.27;;
10677;SDS011;5387;48.722;9.110;2024-03-08T01:20:04;25.63;;;12.23;;
10677;SDS011;5387;48.722;9.110;2024-03-08T01:22:32;25.03;;;12.57;;
10677;SDS011;5387;48.722;9.110;2024-03-08T01:25:00;24.80;;;11.80;;
10677;SDS011;5387;48.722;9.110;2024-03-08T01:27:29;25.30;;;13.73;;
10677;SDS011;5387;48.722;9.110;2024-03-08T01:29:56;26.33;;;13.20;;
10677;SDS011;5387;48.722;9.110;2024-03-08T01:32:24;24.73;;;12.93;;
10677;SDS011;5387;48.722;9.110;2024-03-08T01:34:51;24.73;;;12.83;;
10677;SDS011;5387;48.722;9.110;2024-03-08T01:37:17;26.37;;;12.70;;
10677;SDS011;5387;48.722;9.110;2024-03-08T01:39:45;24.43;;;13.57;;
10677;SDS011;5387;48.722;9.110;2024-03-08T01:42:13;23.00;;;12.90;;
10677;SDS011;5387;48.722;9.110;2024-03-08T01:44:42;24.27;;;13.50;;
10677;SDS011;5387;48.722;9.110;2024-03-08T01:47:09;22.53;;;12.53;;
10677;SDS011;5387;48.722;9.110;2024-03-08T01:49:37;24.97;;;13.37;;
10677;SDS011;5387;48.722;9.110;2024-03-08T01:52:04;23.13;;;13.33;;
10677;SDS011;5387;48.722;9.110;2024-03-08T01:54:31;21.83;;;12.67;;
10677;SDS011;5387;48.722;9.110;2024-03-08T01:56:58;26.43;;;13.27;;
10677;SDS011;5387;48.722;9.110;2024-03-08T01:59:27;24.23;;;12.23;;
10677;SDS011;5387;48.722;9.110;2024-03-08T02:01:54;23.93;;;12.77;;
10677;SDS011;5387;48.722;9.110;2024-03-08T02:04:24;26.73;;;14.10;;
10677;SDS011;5387;48.722;9.110;2024-03-08T02:06:51;21.70;;;12.90;;
10677;SDS011;5387;48.722;9.110;2024-03-08T02:09:18;27.40;;;13.60;;
10677;SDS011;5387;48.722;9.110;2024-03-08T02:11:45;24.97;;;13.73;;
10677;SDS011;5387;48.722;9.110;2024-03-08T02:14:12;24.67;;;12.87;;
10677;SDS011;5387;48.722;9.110;2024-03-08T02:16:40;25.30;;;12.93;;
10677;SDS011;5387;48.722;9.110;2024-03-08T02:19:07;26.83;;;13.20;;
10677;SDS011;5387;48.722;9.110;2024-03-08T02:21:36;23.07;;;12.33;;
10677;SDS011;5387;48.722;9.110;2024-03-08T02:24:03;25.23;;;13.40;;
10677;SDS011;5387;48.722;9.110;2024-03-08T02:26:30;23.50;;;12.83;;
10677;SDS011;5387;48.722;9.110;2024-03-08T02:28:57;21.70;;;12.07;;
10677;SDS011;5387;48.722;9.110;2024-03-08T02:31:24;24.47;;;11.90;;
10677;SDS011;5387;48.722;9.110;2024-03-08T02:33:51;20.80;;;11.93;;
10677;SDS011;5387;48.722;9.110;2024-03-08T02:36:17;23.07;;;12.53;;
10677;SDS011;5387;48.722;9.110;2024-03-08T02:38:46;20.37;;;12.27;;
10677;SDS011;5387;48.722;9.110;2024-03-08T02:41:12;21.27;;;12.03;;
10677;SDS011;5387;48.722;9.110;2024-03-08T02:43:39;20.70;;;11.87;;
10677;SDS011;5387;48.722;9.110;2024-03-08T02:46:06;26.50;;;11.93;;
10677;SDS011;5387;48.722;9.110;2024-03-08T02:48:33;19.23;;;11.73;;
10677;SDS011;5387;48.722;9.110;2024-03-08T02:51:00;23.87;;;12.30;;
10677;SDS011;5387;48.722;9.110;2024-03-08T02:53:27;24.53;;;12.33;;
10677;SDS011;5387;48.722;9.110;2024-03-08T02:55:55;22.80;;;11.40;;
10677;SDS011;5387;48.722;9.110;2024-03-08T02:58:22;22.20;;;11.20;;
10677;SDS011;5387;48.722;9.110;2024-03-08T03:00:49;22.73;;;11.73;;
10677;SDS011;5387;48.722;9.110;2024-03-08T03:03:15;21.97;;;11.23;;
10677;SDS011;5387;48.722;9.110;2024-03-08T03:05:41;23.17;;;12.23;;
10677;SDS011;5387;48.722;9.110;2024-03-08T03:08:09;24.97;;;12.77;;
10677;SDS011;5387;48.722;9.110;2024-03-08T03:10:36;22.20;;;12.43;;
10677;SDS011;5387;48.722;9.110;2024-03-08T03:13:05;22.60;;;11.90;;
10677;SDS011;5387;48.722;9.110;2024-03-08T03:15:31;18.00;;;10.57;;
10677;SDS011;5387;48.722;9.110;2024-03-08T03:17:59;28.60;;;13.20;;
10677;SDS011;5387;48.722;9.110;2024-03-08T03:20:26;18.63;;;11.53;;
10677;SDS011;5387;48.722;9.110;2024-03-08T03:22:57;22.17;;;12.27;;
10677;SDS011;5387;48.722;9.110;2024-03-08T03:25:26;19.03;;;10.73;;
10677;SDS011;5387;48.722;9.110;2024-03-08T03:27:59;25.07;;;12.60;;
10677;SDS011;5387;48.722;9.110;2024-03-08T03:30:27;21.03;;;11.73;;
10677;SDS011;5387;48.722;9.110;2024-03-08T03:32:58;19.23;;;11.53;;
10677;SDS011;5387;48.722;9.110;2024-03-08T03:35:25;20.80;;;11.47;;
10677;SDS011;5387;48.722;9.110;2024-03-08T03:37:52;25.07;;;11.67;;
10677;SDS011;5387;48.722;9.110;2024-03-08T03:40:30;19.73;;;11.77;;
10677;SDS011;5387;48.722;9.110;2024-03-08T03:42:57;25.07;;;12.63;;
10677;SDS011;5387;48.722;9.110;2024-03-08T03:45:24;18.97;;;11.37;;
10677;SDS011;5387;48.722;9.110;2024-03-08T03:47:53;20.30;;;12.20;;
10677;SDS011;5387;48.722;9.110;2024-03-08T03:50:20;18.67;;;10.13;;
10677;SDS011;5387;48.722;9.110;2024-03-08T03:52:47;21.40;;;12.70;;
10677;SDS011;5387;48.722;9.110;2024-03-08T03:55:14;26.73;;;12.70;;
10677;SDS011;5387;48.722;9.110;2024-03-08T03:57:41;25.00;;;12.20;;
10677;SDS011;5387;48.722;9.110;2024-03-08T04:00:11;22.93;;;11.97;;
10677;SDS011;5387;48.722;9.110;2024-03-08T04:02:38;21.47;;;11.97;;
10677;SDS011;5387;48.722;9.110;2024-03-08T04:05:09;22.97;;;12.00;;
10677;SDS011;5387;48.722;9.110;2024-03-08T04:07:36;21.63;;;13.10;;
10677;SDS011;5387;48.722;9.110;2024-03-08T04:10:03;21.43;;;12.03;;
10677;SDS011;5387;48.722;9.110;2024-03-08T04:12:32;22.03;;;11.77;;
10677;SDS011;5387;48.722;9.110;2024-03-08T04:14:59;23.23;;;11.80;;
10677;SDS011;5387;48.722;9.110;2024-03-08T04:17:25;19.63;;;11.67;;
10677;SDS011;5387;48.722;9.110;2024-03-08T04:19:52;21.60;;;11.67;;
10677;SDS011;5387;48.722;9.110;2024-03-08T04:22:21;22.90;;;11.70;;
10677;SDS011;5387;48.722;9.110;2024-03-08T04:24:47;20.90;;;10.93;;
10677;SDS011;5387;48.722;9.110;2024-03-08T04:27:14;20.70;;;12.37;;
10677;SDS011;5387;48.722;9.110;2024-03-08T04:29:41;21.43;;;11.83;;
10677;SDS011;5387;48.722;9.110;2024-03-08T04:32:08;22.77;;;12.10;;
10677;SDS011;5387;48.722;9.110;2024-03-08T04:34:36;19.37;;;11.37;;
10677;SDS011;5387;48.722;9.110;2024-03-08T04:37:03;25.50;;;12.23;;
10677;SDS011;5387;48.722;9.110;2024-03-08T04:39:31;22.03;;;11.73;;
10677;SDS011;5387;48.722;9.110;2024-03-08T04:41:59;20.87;;;11.60;;
10677;SDS011;5387;48.722;9.110;2024-03-08T04:44:29;20.23;;;12.00;;
10677;SDS011;5387;48.722;9.110;2024-03-08T04:46:56;19.00;;;11.00;;
10677;SDS011;5387;48.722;9.110;2024-03-08T04:49:23;21.97;;;11.53;;
10677;SDS011;5387;48.722;9.110;2024-03-08T04:51:50;20.67;;;11.50;;
10677;SDS011;5387;48.722;9.110;2024-03-08T04:54:17;20.87;;;11.70;;
10677;SDS011;5387;48.722;9.110;2024-03-08T04:56:45;21.23;;;12.10;;
10677;SDS011;5387;48.722;9.110;2024-03-08T04:59:12;25.30;;;13.50;;
10677;SDS011;5387;48.722;9.110;2024-03-08T05:01:39;26.07;;;13.40;;
10677;SDS011;5387;48.722;9.110;2024-03-08T05:04:05;20.63;;;11.63;;
10677;SDS011;5387;48.722;9.110;2024-03-08T05:06:32;24.43;;;11.80;;
10677;SDS011;5387;48.722;9.110;2024-03-08T05:08:59;24.40;;;13.10;;
10677;SDS011;5387;48.722;9.110;2024-03-08T05:11:31;22.20;;;12.27;;
10677;SDS011;5387;48.722;9.110;2024-03-08T05:13:59;22.13;;;12.73;;
10677;SDS011;5387;48.722;9.110;2024-03-08T05:16:26;30.70;;;13.73;;
10677;SDS011;5387;48.722;9.110;2024-03-08T05:18:53;21.30;;;11.13;;
10677;SDS011;5387;48.722;9.110;2024-03-08T05:21:20;22.13;;;12.33;;
10677;SDS011;5387;48.722;9.110;2024-03-08T05:23:46;23.67;;;13.10;;
10677;SDS011;5387;48.722;9.110;2024-03-08T05:26:14;24.03;;;12.83;;
10677;SDS011;5387;48.722;9.110;2024-03-08T05:28:41;24.20;;;13.90;;
10677;SDS011;5387;48.722;9.110;2024-03-08T05:31:09;23.93;;;13.03;;
10677;SDS011;5387;48.722;9.110;2024-03-08T05:33:36;23.63;;;13.60;;
10677;SDS011;5387;48.722;9.110;2024-03-08T05:36:03;22.53;;;12.40;;
10677;SDS011;5387;48.722;9.110;2024-03-08T05:38:31;26.40;;;12.93;;
10677;SDS011;5387;48.722;9.110;2024-03-08T05:41:04;25.00;;;13.47;;
10677;SDS011;5387;48.722;9.110;2024-03-08T05:43:42;23.87;;;12.97;;
10677;SDS011;5387;48.722;9.110;2024-03-08T05:46:10;22.63;;;12.47;;
10677;SDS011;5387;48.722;9.110;2024-03-08T05:48:37;25.77;;;13.30;;
10677;SDS011;5387;48.722;9.110;2024-03-08T05:51:04;22.57;;;12.07;;
10677;SDS011;5387;48.722;9.110;2024-03-08T05:53:31;22.90;;;12.53;;
10677;SDS011;5387;48.722;9.110;2024-03-08T05:55:58;25.10;;;13.83;;
10677;SDS011;5387;48.722;9.110;2024-03-08T05:58:27;23.63;;;13.67;;
10677;SDS011;5387;48.722;9.110;2024-03-08T06:00:55;24.30;;;14.07;;
10677;SDS011;5387;48.722;9.110;2024-03-08T06:03:23;23.40;;;13.73;;
10677;SDS011;5387;48.722;9.110;2024-03-08T06:05:50;25.13;;;13.30;;
10677;SDS011;5387;48.722;9.110;2024-03-08T06:08:16;26.73;;;13.13;;
10677;SDS011;5387;48.722;9.110;2024-03-08T06:10:44;28.50;;;14.77;;
10677;SDS011;5387;48.722;9.110;2024-03-08T06:13:13;24.87;;;12.57;;
10677;SDS011;5387;48.722;9.110;2024-03-08T06:15:40;27.70;;;14.07;;
10677;SDS011;5387;48.722;9.110;2024-03-08T06:18:07;26.13;;;14.03;;
10677;SDS011;5387;48.722;9.110;2024-03-08T06:20:37;28.00;;;14.73;;
10677;SDS011;5387;48.722;9.110;2024-03-08T06:23:04;26.73;;;13.70;;
10677;SDS011;5387;48.722;9.110;2024-03-08T06:25:30;30.00;;;14.90;;
10677;SDS011;5387;48.722;9.110;2024-03-08T06:27:57;27.10;;;14.70;;
10677;SDS011;5387;48.722;9.110;2024-03-08T06:30:24;25.83;;;13.43;;
10677;SDS011;5387;48.722;9.110;2024-03-08T06:32:51;25.83;;;13.83;;
10677;SDS011;5387;48.722;9.110;2024-03-08T06:35:17;26.07;;;13.23;;
10677;SDS011;5387;48.722;9.110;2024-03-08T06:37:46;27.90;;;12.73;;
10677;SDS011;5387;48.722;9.110;2024-03-08T06:40:13;25.60;;;14.17;;
10677;SDS011;5387;48.722;9.110;2024-03-08T06:42:40;31.97;;;14.03;;
10677;SDS011;5387;48.722;9.110;2024-03-08T06:45:08;25.60;;;13.87;;
10677;SDS011;5387;48.722;9.110;2024-03-08T06:47:35;25.30;;;14.53;;
10677;SDS011;5387;48.722;9.110;2024-03-08T06:50:03;23.93;;;14.23;;
10677;SDS011;5387;48.722;9.110;2024-03-08T06:52:30;29.43;;;14.10;;
10677;SDS011;5387;48.722;9.110;2024-03-08T06:54:59;23.27;;;14.13;;
10677;SDS011;5387;48.722;9.110;2024-03-08T06:57:26;23.30;;;14.67;;
10677;SDS011;5387;48.722;9.110;2024-03-08T06:59:54;30.43;;;14.37;;
10677;SDS011;5387;48.722;9.110;2024-03-08T07:02:22;27.60;;;13.53;;
10677;SDS011;5387;48.722;9.110;2024-03-08T07:04:50;27.50;;;14.20;;
10677;SDS011;5387;48.722;9.110;2024-03-08T07:07:18;23.93;;;13.77;;
10677;SDS011;5387;48.722;9.110;2024-03-08T07:09:45;26.83;;;13.60;;
10677;SDS011;5387;48.722;9.110;2024-03-08T07:12:15;25.57;;;13.13;;
10677;SDS011;5387;48.722;9.110;2024-03-08T07:14:43;25.83;;;12.90;;
10677;SDS011;5387;48.722;9.110;2024-03-08T07:17:10;24.30;;;13.17;;
10677;SDS011;5387;48.722;9.110;2024-03-08T07:19:37;25.00;;;14.00;;
10677;SDS011;5387;48.722;9.110;2024-03-08T07:22:04;25.53;;;13.13;;
10677;SDS011;5387;48.722;9.110;2024-03-08T07:24:33;27.33;;;14.10;;
10677;SDS011;5387;48.722;9.110;2024-03-08T07:27:16;26.57;;;13.77;;
10677;SDS011;5387;48.722;9.110;2024-03-08T07:29:43;23.77;;;13.00;;
10677;SDS011;5387;48.722;9.110;2024-03-08T07:32:10;25.37;;;12.83;;
10677;SDS011;5387;48.722;9.110;2024-03-08T07:34:44;27.30;;;14.40;;
10677;SDS011;5387;48.722;9.110;2024-03-08T07:37:11;24.37;;;12.63;;
10677;SDS011;5387;48.722;9.110;2024-03-08T07:39:38;25.50;;;13.70;;
10677;SDS011;5387;48.722;9.110;2024-03-08T07:42:05;24.00;;;12.43;;
10677;SDS011;5387;48.722;9.110;2024-03-08T07:44:33;21.57;;;13.47;;
10677;SDS011;5387;48.722;9.110;2024-03-08T07:47:00;24.37;;;13.90;;
10677;SDS011;5387;48.722;9.110;2024-03-08T07:49:28;23.53;;;13.97;;
10677;SDS011;5387;48.722;9.110;2024-03-08T07:51:55;26.83;;;13.17;;
10677;SDS011;5387;48.722;9.110;2024-03-08T07:54:22;24.37;;;12.50;;
10677;SDS011;5387;48.722;9.110;2024-03-08T07:56:50;23.87;;;13.57;;
10677;SDS011;5387;48.722;9.110;2024-03-08T07:59:17;22.73;;;12.60;;
10677;SDS011;5387;48.722;9.110;2024-03-08T08:01:47;23.47;;;13.07;;
10677;SDS011;5387;48.722;9.110;2024-03-08T08:04:14;21.77;;;12.17;;
10677;SDS011;5387;48.722;9.110;2024-03-08T08:06:43;20.70;;;13.10;;
10677;SDS011;5387;48.722;9.110;2024-03-08T08:09:09;23.30;;;12.80;;
10677;SDS011;5387;48.722;9.110;2024-03-08T08:11:39;23.30;;;12.57;;
10677;SDS011;5387;48.722;9.110;2024-03-08T08:14:08;23.63;;;12.70;;
10677;SDS011;5387;48.722;9.110;2024-03-08T08:16:35;32.73;;;14.30;;
10677;SDS011;5387;48.722;9.110;2024-03-08T08:19:03;20.30;;;13.23;;
10677;SDS011;5387;48.722;9.110;2024-03-08T08:21:32;21.57;;;12.83;;
10677;SDS011;5387;48.722;9.110;2024-03-08T08:23:59;24.17;;;13.50;;
10677;SDS011;5387;48.722;9.110;2024-03-08T08:26:28;20.17;;;12.77;;
10677;SDS011;5387;48.722;9.110;2024-03-08T08:28:55;23.60;;;13.73;;
10677;SDS011;5387;48.722;9.110;2024-03-08T08:31:22;23.70;;;14.20;;
10677;SDS011;5387;48.722;9.110;2024-03-08T08:33:48;22.27;;;13.40;;
10677;SDS011;5387;48.722;9.110;2024-03-08T08:36:18;21.37;;;12.87;;
10677;SDS011;5387;48.722;9.110;2024-03-08T08:38:45;23.57;;;13.43;;
10677;SDS011;5387;48.722;9.110;2024-03-08T08:41:12;29.70;;;14.57;;
10677;SDS011;5387;48.722;9.110;2024-03-08T08:43:39;19.97;;;12.97;;
10677;SDS011;5387;48.722;9.110;2024-03-08T08:46:09;22.63;;;13.63;;
10677;SDS011;5387;48.722;9.110;2024-03-08T08:48:38;21.30;;;13.40;;
10677;SDS011;5387;48.722;9.110;2024-03-08T08:51:06;20.63;;;12.40;;
10677;SDS011;5387;48.722;9.110;2024-03-08T08:53:34;22.17;;;13.57;;
10677;SDS011;5387;48.722;9.110;2024-03-08T08:56:00;20.57;;;13.13;;
10677;SDS011;5387;48.722;9.110;2024-03-08T08:58:27;18.77;;;12.37;;
10677;SDS011;5387;48.722;9.110;2024-03-08T09:00:54;22.33;;;13.20;;
10677;SDS011;5387;48.722;9.110;2024-03-08T09:03:21;21.13;;;12.27;;
10677;SDS011;5387;48.722;9.110;2024-03-08T09:05:48;20.50;;;12.27;;
10677;SDS011;5387;48.722;9.110;2024-03-08T09:08:15;20.77;;;12.70;;
10677;SDS011;5387;48.722;9.110;2024-03-08T09:10:43;21.43;;;12.23;;
10677;SDS011;5387;48.722;9.110;2024-03-08T09:13:10;19.47;;;11.87;;
10677;SDS011;5387;48.722;9.110;2024-03-08T09:15:37;22.80;;;11.97;;
10677;SDS011;5387;48.722;9.110;2024-03-08T09:18:05;20.07;;;11.13;;
10677;SDS011;5387;48.722;9.110;2024-03-08T09:20:32;20.30;;;11.27;;
10677;SDS011;5387;48.722;9.110;2024-03-08T09:22:59;23.47;;;12.07;;
10677;SDS011;5387;48.722;9.110;2024-03-08T09:25:26;17.10;;;10.87;;
10677;SDS011;5387;48.722;9.110;2024-03-08T09:27:54;17.53;;;11.77;;
10677;SDS011;5387;48.722;9.110;2024-03-08T09:30:21;19.67;;;11.17;;
10677;SDS011;5387;48.722;9.110;2024-03-08T09:32:48;20.80;;;12.17;;
10677;SDS011;5387;48.722;9.110;2024-03-08T09:35:16;20.63;;;11.70;;
10677;SDS011;5387;48.722;9.110;2024-03-08T09:37:43;23.17;;;11.60;;
10677;SDS011;5387;48.722;9.110;2024-03-08T09:40:12;18.73;;;11.53;;
10677;SDS011;5387;48.722;9.110;2024-03-08T09:42:40;16.30;;;10.03;;
10677;SDS011;5387;48.722;9.110;2024-03-08T09:45:09;19.13;;;11.20;;
10677;SDS011;5387;48.722;9.110;2024-03-08T09:47:37;19.77;;;11.23;;
10677;SDS011;5387;48.722;9.110;2024-03-08T09:50:07;20.13;;;11.60;;
10677;SDS011;5387;48.722;9.110;2024-03-08T09:52:34;21.50;;;12.10;;
10677;SDS011;5387;48.722;9.110;2024-03-08T09:55:03;18.37;;;11.17;;
10677;SDS011;5387;48.722;9.110;2024-03-08T09:57:32;20.43;;;12.27;;
10677;SDS011;5387;48.722;9.110;2024-03-08T09:59:59;19.43;;;11.70;;
10677;SDS011;5387;48.722;9.110;2024-03-08T10:02:27;18.20;;;11.10;;
10677;SDS011;5387;48.722;9.110;2024-03-08T10:04:55;18.00;;;10.93;;
10677;SDS011;5387;48.722;9.110;2024-03-08T10:07:23;19.50;;;11.20;;
10677;SDS011;5387;48.722;9.110;2024-03-08T10:09:51;21.50;;;11.43;;
10677;SDS011;5387;48.722;9.110;2024-03-08T10:12:18;18.23;;;12.20;;
10677;SDS011;5387;48.722;9.110;2024-03-08T10:14:46;16.77;;;10.77;;
10677;SDS011;5387;48.722;9.110;2024-03-08T10:17:12;18.27;;;12.17;;
10677;SDS011;5387;48.722;9.110;2024-03-08T10:19:40;18.67;;;11.13;;
10677;SDS011;5387;48.722;9.110;2024-03-08T10:22:15;22.20;;;12.27;;
10677;SDS011;5387;48.722;9.110;2024-03-08T10:24:44;19.37;;;11.27;;
10677;SDS011;5387;48.722;9.110;2024-03-08T10:27:11;20.20;;;13.70;;
10677;SDS011;5387;48.722;9.110;2024-03-08T10:29:38;29.83;;;16.53;;
10677;SDS011;5387;48.722;9.110;2024-03-08T10:32:09;22.97;;;12.43;;
10677;SDS011;5387;48.722;9.110;2024-03-08T10:34:37;21.13;;;11.53;;
10677;SDS011;5387;48.722;9.110;2024-03-08T10:37:05;27.50;;;14.10;;
10677;SDS011;5387;48.722;9.110;2024-03-08T10:39:38;20.00;;;12.20;;
10677;SDS011;5387;48.722;9.110;2024-03-08T10:42:11;21.47;;;12.80;;
10677;SDS011;5387;48.722;9.110;2024-03-08T10:44:46;19.17;;;12.03;;
10677;SDS011;5387;48.722;9.110;2024-03-08T10:47:22;18.67;;;11.87;;
10677;SDS011;5387;48.722;9.110;2024-03-08T10:49:57;22.37;;;12.03;;
10677;SDS011;5387;48.722;9.110;2024-03-08T10:52:39;19.50;;;11.63;;
10677;SDS011;5387;48.722;9.110;2024-03-08T10:55:06;20.77;;;12.63;;
10677;SDS011;5387;48.722;9.110;2024-03-08T10:57:38;21.63;;;12.30;;
10677;SDS011;5387;48.722;9.110;2024-03-08T11:00:06;18.40;;;11.20;;
10677;SDS011;5387;48.722;9.110;2024-03-08T11:02:36;19.23;;;11.07;;
10677;SDS011;5387;48.722;9.110;2024-03-08T11:05:04;17.83;;;11.47;;
10677;SDS011;5387;48.722;9.110;2024-03-08T11:07:33;14.80;;;10.03;;
10677;SDS011;5387;48.722;9.110;2024-03-08T11:10:03;19.57;;;10.97;;
10677;SDS011;5387;48.722;9.110;2024-03-08T11:12:35;16.13;;;9.93;;
10677;SDS011;5387;48.722;9.110;2024-03-08T11:15:09;19.27;;;10.87;;
10677;SDS011;5387;48.722;9.110;2024-03-08T11:17:44;18.07;;;11.20;;
10677;SDS011;5387;48.722;9.110;2024-03-08T11:20:13;17.10;;;10.80;;
10677;SDS011;5387;48.722;9.110;2024-03-08T11:22:49;17.13;;;10.57;;
10677;SDS011;5387;48.722;9.110;2024-03-08T11:25:34;16.33;;;10.37;;
10677;SDS011;5387;48.722;9.110;2024-03-08T11:28:11;16.00;;;11.20;;
10677;SDS011;5387;48.722;9.110;2024-03-08T11:30:42;18.23;;;10.63;;
10677;SDS011;5387;48.722;9.110;2024-03-08T11:33:11;18.70;;;11.27;;
10677;SDS011;5387;48.722;9.110;2024-03-08T11:35:38;19.47;;;10.53;;
10677;SDS011;5387;48.722;9.110;2024-03-08T11:38:07;17.73;;;10.60;;
10677;SDS011;5387;48.722;9.110;2024-03-08T11:40:35;17.43;;;9.67;;
10677;SDS011;5387;48.722;9.110;2024-03-08T11:43:02;17.37;;;9.80;;
10677;SDS011;5387;48.722;9.110;2024-03-08T11:45:32;14.50;;;9.77;;
10677;SDS011;5387;48.722;9.110;2024-03-08T11:48:01;18.70;;;10.23;;
10677;SDS011;5387;48.722;9.110;2024-03-08T11:50:28;17.63;;;10.93;;
10677;SDS011;5387;48.722;9.110;2024-03-08T11:53:00;16.93;;;10.37;;
10677;SDS011;5387;48.722;9.110;2024-03-08T11:55:27;17.00;;;10.77;;
10677;SDS011;5387;48.722;9.110;2024-03-08T11:58:00;16.93;;;10.63;;
10677;SDS011;5387;48.722;9.110;2024-03-08T12:00:28;15.40;;;9.57;;
10677;SDS011;5387;48.722;9.110;2024-03-08T12:03:03;18.90;;;9.80;;
10677;SDS011;5387;48.722;9.110;2024-03-08T12:05:31;18.50;;;10.20;;
10677;SDS011;5387;48.722;9.110;2024-03-08T12:07:59;15.10;;;10.50;;
10677;SDS011;5387;48.722;9.110;2024-03-08T12:10:26;17.07;;;10.43;;
10677;SDS011;5387;48.722;9.110;2024-03-08T12:12:54;16.77;;;10.80;;
10677;SDS011;5387;48.722;9.110;2024-03-08T12:15:25;19.70;;;11.70;;
10677;SDS011;5387;48.722;9.110;2024-03-08T12:17:54;18.17;;;11.93;;
10677;SDS011;5387;48.722;9.110;2024-03-08T12:20:22;18.23;;;10.80;;
10677;SDS011;5387;48.722;9.110;2024-03-08T12:22:51;20.13;;;11.67;;
10677;SDS011;5387;48.722;9.110;2024-03-08T12:25:19;18.33;;;11.40;;
10677;SDS011;5387;48.722;9.110;2024-03-08T12:27:46;19.13;;;11.73;;
10677;SDS011;5387;48.722;9.110;2024-03-08T12:30:20;19.43;;;10.80;;
10677;SDS011;5387;48.722;9.110;2024-03-08T12:32:52;19.13;;;11.13;;
10677;SDS011;5387;48.722;9.110;2024-03-08T12:35:21;18.57;;;11.60;;
10677;SDS011;5387;48.722;9.110;2024-03-08T12:37:50;18.37;;;11.33;;
10677;SDS011;5387;48.722;9.110;2024-03-08T12:40:19;18.33;;;11.43;;
10677;SDS011;5387;48.722;9.110;2024-03-08T12:42:52;19.17;;;11.97;;
10677;SDS011;5387;48.722;9.110;2024-03-08T12:45:20;21.67;;;11.47;;
10677;SDS011;5387;48.722;9.110;2024-03-08T12:47:48;20.03;;;10.87;;
10677;SDS011;5387;48.722;9.110;2024-03-08T12:50:17;21.67;;;12.07;;
10677;SDS011;5387;48.722;9.110;2024-03-08T12:52:44;20.07;;;11.67;;
10677;SDS011;5387;48.722;9.110;2024-03-08T12:55:11;22.70;;;12.77;;
10677;SDS011;5387;48.722;9.110;2024-03-08T12:57:38;21.40;;;11.67;;
10677;SDS011;5387;48.722;9.110;2024-03-08T13:00:05;20.40;;;11.83;;
10677;SDS011;5387;48.722;9.110;2024-03-08T13:02:38;21.03;;;12.50;;
10677;SDS011;5387;48.722;9.110;2024-03-08T13:05:05;17.70;;;11.03;;
10677;SDS011;5387;48.722;9.110;2024-03-08T13:07:36;21.67;;;11.70;;
10677;SDS011;5387;48.722;9.110;2024-03-08T13:10:03;22.47;;;11.70;;
10677;SDS011;5387;48.722;9.110;2024-03-08T13:12:32;19.60;;;11.87;;
10677;SDS011;5387;48.722;9.110;2024-03-08T13:15:00;22.63;;;12.83;;
10677;SDS011;5387;48.722;9.110;2024-03-08T13:17:26;22.50;;;12.17;;
10677;SDS011;5387;48.722;9.110;2024-03-08T13:19:54;20.17;;;12.00;;
10677;SDS011;5387;48.722;9.110;2024-03-08T13:22:22;21.60;;;12.30;;
10677;SDS011;5387;48.722;9.110;2024-03-08T13:24:51;20.93;;;11.90;;
10677;SDS011;5387;48.722;9.110;2024-03-08T13:27:18;20.40;;;11.87;;
10677;SDS011;5387;48.722;9.110;2024-03-08T13:29:45;23.23;;;12.50;;
10677;SDS011;5387;48.722;9.110;2024-03-08T13:32:13;22.60;;;12.50;;
10677;SDS011;5387;48.722;9.110;2024-03-08T13:34:40;22.53;;;12.53;;
10677;SDS011;5387;48.722;9.110;2024-03-08T13:37:08;22.50;;;12.77;;
10677;SDS011;5387;48.722;9.110;2024-03-08T13:39:36;21.63;;;12.90;;
10677;SDS011;5387;48.722;9.110;2024-03-08T13:42:09;20.90;;;12.47;;
10677;SDS011;5387;48.722;9.110;2024-03-08T13:44:38;21.43;;;11.80;;
10677;SDS011;5387;48.722;9.110;2024-03-08T13:47:06;18.27;;;11.30;;
10677;SDS011;5387;48.722;9.110;2024-03-08T13:49:33;28.80;;;11.80;;
10677;SDS011;5387;48.722;9.110;2024-03-08T13:52:01;19.93;;;12.17;;
10677;SDS011;5387;48.722;9.110;2024-03-08T13:54:29;21.40;;;12.23;;
10677;SDS011;5387;48.722;9.110;2024-03-08T13:56:56;20.07;;;12.13;;
10677;SDS011;5387;48.722;9.110;2024-03-08T13:59:25;23.67;;;12.53;;
10677;SDS011;5387;48.722;9.110;2024-03-08T14:01:54;22.93;;;12.70;;
10677;SDS011;5387;48.722;9.110;2024-03-08T14:04:22;19.87;;;11.60;;
10677;SDS011;5387;48.722;9.110;2024-03-08T14:06:50;19.87;;;12.57;;
10677;SDS011;5387;48.722;9.110;2024-03-08T14:09:24;22.30;;;13.47;;
10677;SDS011;5387;48.722;9.110;2024-03-08T14:11:54;24.30;;;12.43;;
10677;SDS011;5387;48.722;9.110;2024-03-08T14:14:21;21.03;;;12.73;;
10677;SDS011;5387;48.722;9.110;2024-03-08T14:16:49;21.50;;;12.73;;
10677;SDS011;5387;48.722;9.110;2024-03-08T14:19:18;19.37;;;12.03;;
10677;SDS011;5387;48.722;9.110;2024-03-08T14:21:45;24.60;;;13.23;;
10677;SDS011;5387;48.722;9.110;2024-03-08T14:24:13;22.33;;;12.97;;
10677;SDS011;5387;48.722;9.110;2024-03-08T14:26:41;18.93;;;11.50;;
10677;SDS011;5387;48.722;9.110;2024-03-08T14:29:08;28.47;;;13.67;;
10677;SDS011;5387;48.722;9.110;2024-03-08T14:31:36;25.27;;;13.97;;
10677;SDS011;5387;48.722;9.110;2024-03-08T14:34:04;20.23;;;12.07;;
10677;SDS011;5387;48.722;9.110;2024-03-08T14:36:32;21.20;;;11.97;;
10677;SDS011;5387;48.722;9.110;2024-03-08T14:38:59;20.90;;;12.07;;
10677;SDS011;5387;48.722;9.110;2024-03-08T14:41:25;20.27;;;11.73;;